sensor_id;sensor_type;location;lat;lon;timestamp;P1;durP1;ratioP1;P2;durP2;ratioP2
6282;SDS011;3174;53.486;9.568;2023-02-28T00:01:41;5.77;;;2.60;;
6282;SDS011;3174;53.486;9.568;2023-02-28T00:04:09;4.90;;;2.53;;
6282;SDS011;3174;53.486;9.568;2023-02-28T00:06:37;2.43;;;1.90;;
6282;SDS011;3174;53.486;9.568;2023-02-28T00:09:05;4.90;;;2.60;;
6282;SDS011;3174;53.486;9.568;2023-02-28T00:11:34;3.47;;;1.80;;
6282;SDS011;3174;53.486;9.568;2023-02-28T00:14:04;4.10;;;1.73;;
6282;SDS011;3174;53.486;9.568;2023-02-28T00:16:32;3.23;;;1.97;;
6282;SDS011;3174;53.486;9.568;2023-02-28T00:19:00;4.57;;;2.13;;
6282;SDS011;3174;53.486;9.568;2023-02-28T00:21:28;5.33;;;2.27;;
6282;SDS011;3174;53.486;9.568;2023-02-28T00:23:56;5.30;;;2.63;;
6282;SDS011;3174;53.486;9.568;2023-02-28T00:26:24;5.40;;;2.03;;
6282;SDS011;3174;53.486;9.568;2023-02-28T00:28:53;3.70;;;2.07;;
6282;SDS011;3174;53.486;9.568;2023-02-28T00:31:21;3.33;;;1.70;;
6282;SDS011;3174;53.486;9.568;2023-02-28T00:33:49;4.00;;;1.90;;
6282;SDS011;3174;53.486;9.568;2023-02-28T00:36:18;3.03;;;2.07;;
6282;SDS011;3174;53.486;9.568;2023-02-28T00:38:46;3.73;;;2.60;;
6282;SDS011;3174;53.486;9.568;2023-02-28T00:41:14;3.00;;;2.17;;
6282;SDS011;3174;53.486;9.568;2023-02-28T00:43:42;4.83;;;2.17;;
6282;SDS011;3174;53.486;9.568;2023-02-28T00:46:11;3.53;;;1.70;;
6282;SDS011;3174;53.486;9.568;2023-02-28T00:48:39;4.00;;;1.97;;
6282;SDS011;3174;53.486;9.568;2023-02-28T00:51:07;2.87;;;2.00;;
6282;SDS011;3174;53.486;9.568;2023-02-28T00:53:35;4.63;;;1.90;;
6282;SDS011;3174;53.486;9.568;2023-02-28T00:56:03;3.10;;;2.10;;
6282;SDS011;3174;53.486;9.568;2023-02-28T00:58:32;2.93;;;2.10;;
6282;SDS011;3174;53.486;9.568;2023-02-28T01:01:00;4.37;;;2.10;;
6282;SDS011;3174;53.486;9.568;2023-02-28T01:03:29;4.23;;;1.93;;
6282;SDS011;3174;53.486;9.568;2023-02-28T01:05:57;3.00;;;2.03;;
6282;SDS011;3174;53.486;9.568;2023-02-28T01:08:25;4.40;;;2.20;;
6282;SDS011;3174;53.486;9.568;2023-02-28T01:10:53;2.93;;;1.77;;
6282;SDS011;3174;53.486;9.568;2023-02-28T01:13:22;2.60;;;1.90;;
6282;SDS011;3174;53.486;9.568;2023-02-28T01:15:52;2.80;;;1.77;;
6282;SDS011;3174;53.486;9.568;2023-02-28T01:18:21;4.10;;;1.80;;
6282;SDS011;3174;53.486;9.568;2023-02-28T01:20:52;3.53;;;1.87;;
6282;SDS011;3174;53.486;9.568;2023-02-28T01:23:20;4.90;;;1.93;;
6282;SDS011;3174;53.486;9.568;2023-02-28T01:25:49;2.77;;;1.67;;
6282;SDS011;3174;53.486;9.568;2023-02-28T01:28:17;2.30;;;1.67;;
6282;SDS011;3174;53.486;9.568;2023-02-28T01:30:47;4.00;;;1.87;;
6282;SDS011;3174;53.486;9.568;2023-02-28T01:33:16;2.47;;;1.80;;
6282;SDS011;3174;53.486;9.568;2023-02-28T01:35:43;2.33;;;1.90;;
6282;SDS011;3174;53.486;9.568;2023-02-28T01:38:13;3.00;;;1.70;;
6282;SDS011;3174;53.486;9.568;2023-02-28T01:40:48;3.67;;;2.03;;
6282;SDS011;3174;53.486;9.568;2023-02-28T01:43:19;4.93;;;1.70;;
6282;SDS011;3174;53.486;9.568;2023-02-28T01:45:49;2.83;;;1.77;;
6282;SDS011;3174;53.486;9.568;2023-02-28T01:48:17;2.93;;;1.73;;
6282;SDS011;3174;53.486;9.568;2023-02-28T01:50:46;4.97;;;1.57;;
6282;SDS011;3174;53.486;9.568;2023-02-28T01:53:16;2.67;;;2.00;;
6282;SDS011;3174;53.486;9.568;2023-02-28T01:55:46;3.80;;;2.00;;
6282;SDS011;3174;53.486;9.568;2023-02-28T01:58:16;3.10;;;1.67;;
6282;SDS011;3174;53.486;9.568;2023-02-28T02:00:44;4.40;;;1.90;;
6282;SDS011;3174;53.486;9.568;2023-02-28T02:03:13;3.57;;;1.60;;
6282;SDS011;3174;53.486;9.568;2023-02-28T02:05:45;4.17;;;2.10;;
6282;SDS011;3174;53.486;9.568;2023-02-28T02:08:16;4.17;;;1.80;;
6282;SDS011;3174;53.486;9.568;2023-02-28T02:10:47;4.43;;;1.83;;
6282;SDS011;3174;53.486;9.568;2023-02-28T02:16:18;2.30;;;1.60;;
6282;SDS011;3174;53.486;9.568;2023-02-28T02:19:02;2.80;;;1.70;;
6282;SDS011;3174;53.486;9.568;2023-02-28T02:21:50;2.23;;;1.70;;
6282;SDS011;3174;53.486;9.568;2023-02-28T02:24:33;5.53;;;2.03;;
6282;SDS011;3174;53.486;9.568;2023-02-28T02:27:38;2.93;;;1.73;;
6282;SDS011;3174;53.486;9.568;2023-02-28T02:30:21;2.03;;;1.57;;
6282;SDS011;3174;53.486;9.568;2023-02-28T02:36:22;4.13;;;1.53;;
6282;SDS011;3174;53.486;9.568;2023-02-28T02:38:53;4.10;;;1.90;;
6282;SDS011;3174;53.486;9.568;2023-02-28T02:41:26;3.07;;;1.93;;
6282;SDS011;3174;53.486;9.568;2023-02-28T02:44:01;2.63;;;1.70;;
6282;SDS011;3174;53.486;9.568;2023-02-28T02:46:31;3.00;;;1.77;;
6282;SDS011;3174;53.486;9.568;2023-02-28T02:49:02;3.23;;;1.53;;
6282;SDS011;3174;53.486;9.568;2023-02-28T02:51:34;2.37;;;1.57;;
6282;SDS011;3174;53.486;9.568;2023-02-28T02:54:05;3.00;;;1.60;;
6282;SDS011;3174;53.486;9.568;2023-02-28T02:56:36;2.93;;;1.73;;
6282;SDS011;3174;53.486;9.568;2023-02-28T02:59:07;3.73;;;2.40;;
6282;SDS011;3174;53.486;9.568;2023-02-28T03:01:37;5.13;;;2.00;;
6282;SDS011;3174;53.486;9.568;2023-02-28T03:04:07;2.30;;;1.57;;
6282;SDS011;3174;53.486;9.568;2023-02-28T03:06:38;2.47;;;1.37;;
6282;SDS011;3174;53.486;9.568;2023-02-28T03:09:06;2.87;;;1.77;;
6282;SDS011;3174;53.486;9.568;2023-02-28T03:11:34;4.07;;;1.77;;
6282;SDS011;3174;53.486;9.568;2023-02-28T03:14:09;3.13;;;1.70;;
6282;SDS011;3174;53.486;9.568;2023-02-28T03:16:48;2.03;;;1.33;;
6282;SDS011;3174;53.486;9.568;2023-02-28T03:19:29;4.10;;;1.70;;
6282;SDS011;3174;53.486;9.568;2023-02-28T03:22:07;3.60;;;1.87;;
6282;SDS011;3174;53.486;9.568;2023-02-28T03:24:43;3.60;;;1.70;;
6282;SDS011;3174;53.486;9.568;2023-02-28T03:27:16;4.80;;;1.90;;
6282;SDS011;3174;53.486;9.568;2023-02-28T03:29:47;2.63;;;1.83;;
6282;SDS011;3174;53.486;9.568;2023-02-28T03:32:21;3.00;;;1.60;;
6282;SDS011;3174;53.486;9.568;2023-02-28T03:34:54;3.43;;;1.30;;
6282;SDS011;3174;53.486;9.568;2023-02-28T03:37:25;2.50;;;1.60;;
6282;SDS011;3174;53.486;9.568;2023-02-28T03:39:56;2.27;;;1.40;;
6282;SDS011;3174;53.486;9.568;2023-02-28T03:42:27;2.43;;;1.63;;
6282;SDS011;3174;53.486;9.568;2023-02-28T03:44:56;3.10;;;1.93;;
6282;SDS011;3174;53.486;9.568;2023-02-28T03:47:27;2.37;;;1.40;;
6282;SDS011;3174;53.486;9.568;2023-02-28T03:49:57;2.67;;;2.00;;
6282;SDS011;3174;53.486;9.568;2023-02-28T03:52:31;6.43;;;2.20;;
6282;SDS011;3174;53.486;9.568;2023-02-28T03:55:01;2.67;;;1.83;;
6282;SDS011;3174;53.486;9.568;2023-02-28T03:57:34;6.33;;;2.00;;
6282;SDS011;3174;53.486;9.568;2023-02-28T04:00:06;3.77;;;1.90;;
6282;SDS011;3174;53.486;9.568;2023-02-28T04:02:36;3.00;;;1.83;;
6282;SDS011;3174;53.486;9.568;2023-02-28T04:05:05;2.63;;;1.67;;
6282;SDS011;3174;53.486;9.568;2023-02-28T04:07:35;3.63;;;1.90;;
6282;SDS011;3174;53.486;9.568;2023-02-28T04:10:04;2.43;;;1.43;;
6282;SDS011;3174;53.486;9.568;2023-02-28T04:12:33;2.60;;;1.80;;
6282;SDS011;3174;53.486;9.568;2023-02-28T04:15:00;2.57;;;2.00;;
6282;SDS011;3174;53.486;9.568;2023-02-28T04:17:28;2.73;;;1.67;;
6282;SDS011;3174;53.486;9.568;2023-02-28T04:19:56;3.80;;;1.63;;
6282;SDS011;3174;53.486;9.568;2023-02-28T04:22:24;1.83;;;1.40;;
6282;SDS011;3174;53.486;9.568;2023-02-28T04:24:54;2.47;;;1.80;;
6282;SDS011;3174;53.486;9.568;2023-02-28T04:27:22;2.73;;;1.57;;
6282;SDS011;3174;53.486;9.568;2023-02-28T04:29:50;4.07;;;1.63;;
6282;SDS011;3174;53.486;9.568;2023-02-28T04:32:18;3.10;;;1.73;;
6282;SDS011;3174;53.486;9.568;2023-02-28T04:34:46;2.57;;;1.90;;
6282;SDS011;3174;53.486;9.568;2023-02-28T04:37:14;4.00;;;1.70;;
6282;SDS011;3174;53.486;9.568;2023-02-28T04:39:42;3.33;;;1.93;;
6282;SDS011;3174;53.486;9.568;2023-02-28T04:42:12;3.33;;;1.50;;
6282;SDS011;3174;53.486;9.568;2023-02-28T04:44:40;1.60;;;1.40;;
6282;SDS011;3174;53.486;9.568;2023-02-28T04:47:08;4.53;;;1.77;;
6282;SDS011;3174;53.486;9.568;2023-02-28T04:49:36;5.23;;;1.80;;
6282;SDS011;3174;53.486;9.568;2023-02-28T04:52:04;5.20;;;1.77;;
6282;SDS011;3174;53.486;9.568;2023-02-28T04:54:33;3.10;;;1.87;;
6282;SDS011;3174;53.486;9.568;2023-02-28T04:57:01;3.17;;;1.77;;
6282;SDS011;3174;53.486;9.568;2023-02-28T04:59:32;4.70;;;1.70;;
6282;SDS011;3174;53.486;9.568;2023-02-28T05:02:00;3.97;;;1.63;;
6282;SDS011;3174;53.486;9.568;2023-02-28T05:04:33;1.87;;;1.47;;
6282;SDS011;3174;53.486;9.568;2023-02-28T05:07:01;2.53;;;1.60;;
6282;SDS011;3174;53.486;9.568;2023-02-28T05:09:30;2.87;;;1.83;;
6282;SDS011;3174;53.486;9.568;2023-02-28T05:11:59;3.93;;;2.03;;
6282;SDS011;3174;53.486;9.568;2023-02-28T05:14:27;4.60;;;1.80;;
6282;SDS011;3174;53.486;9.568;2023-02-28T05:16:56;5.70;;;2.00;;
6282;SDS011;3174;53.486;9.568;2023-02-28T05:19:24;4.53;;;2.10;;
6282;SDS011;3174;53.486;9.568;2023-02-28T05:21:53;4.77;;;1.93;;
6282;SDS011;3174;53.486;9.568;2023-02-28T05:24:21;4.23;;;2.00;;
6282;SDS011;3174;53.486;9.568;2023-02-28T05:26:50;2.70;;;1.50;;
6282;SDS011;3174;53.486;9.568;2023-02-28T05:29:19;5.43;;;2.27;;
6282;SDS011;3174;53.486;9.568;2023-02-28T05:31:47;3.83;;;2.20;;
6282;SDS011;3174;53.486;9.568;2023-02-28T05:34:17;3.20;;;2.20;;
6282;SDS011;3174;53.486;9.568;2023-02-28T05:36:45;6.10;;;3.77;;
6282;SDS011;3174;53.486;9.568;2023-02-28T05:39:13;6.90;;;3.07;;
6282;SDS011;3174;53.486;9.568;2023-02-28T05:41:41;8.00;;;4.37;;
6282;SDS011;3174;53.486;9.568;2023-02-28T05:44:09;11.23;;;2.97;;
6282;SDS011;3174;53.486;9.568;2023-02-28T05:46:38;6.03;;;2.40;;
6282;SDS011;3174;53.486;9.568;2023-02-28T05:49:06;6.77;;;2.47;;
6282;SDS011;3174;53.486;9.568;2023-02-28T05:51:35;4.13;;;2.20;;
6282;SDS011;3174;53.486;9.568;2023-02-28T05:54:06;3.20;;;1.87;;
6282;SDS011;3174;53.486;9.568;2023-02-28T05:56:34;5.10;;;2.10;;
6282;SDS011;3174;53.486;9.568;2023-02-28T05:59:05;6.63;;;2.60;;
6282;SDS011;3174;53.486;9.568;2023-02-28T06:01:34;3.40;;;1.97;;
6282;SDS011;3174;53.486;9.568;2023-02-28T06:04:03;4.67;;;2.50;;
6282;SDS011;3174;53.486;9.568;2023-02-28T06:06:32;7.53;;;2.70;;
6282;SDS011;3174;53.486;9.568;2023-02-28T06:09:04;3.93;;;2.27;;
6282;SDS011;3174;53.486;9.568;2023-02-28T06:11:32;6.70;;;2.07;;
6282;SDS011;3174;53.486;9.568;2023-02-28T06:14:00;3.87;;;2.50;;
6282;SDS011;3174;53.486;9.568;2023-02-28T06:16:29;2.67;;;2.03;;
6282;SDS011;3174;53.486;9.568;2023-02-28T06:19:00;4.17;;;2.17;;
6282;SDS011;3174;53.486;9.568;2023-02-28T06:21:30;5.00;;;2.37;;
6282;SDS011;3174;53.486;9.568;2023-02-28T06:23:58;3.00;;;1.87;;
6282;SDS011;3174;53.486;9.568;2023-02-28T06:26:27;7.20;;;2.20;;
6282;SDS011;3174;53.486;9.568;2023-02-28T06:28:56;4.30;;;2.00;;
6282;SDS011;3174;53.486;9.568;2023-02-28T06:31:24;6.40;;;2.23;;
6282;SDS011;3174;53.486;9.568;2023-02-28T06:33:53;3.83;;;2.07;;
6282;SDS011;3174;53.486;9.568;2023-02-28T06:36:21;2.20;;;1.73;;
6282;SDS011;3174;53.486;9.568;2023-02-28T06:38:49;3.27;;;2.10;;
6282;SDS011;3174;53.486;9.568;2023-02-28T06:41:21;3.03;;;1.90;;
6282;SDS011;3174;53.486;9.568;2023-02-28T06:43:52;2.57;;;2.10;;
6282;SDS011;3174;53.486;9.568;2023-02-28T06:46:20;4.27;;;2.40;;
6282;SDS011;3174;53.486;9.568;2023-02-28T06:48:48;5.23;;;1.93;;
6282;SDS011;3174;53.486;9.568;2023-02-28T06:51:17;3.27;;;1.87;;
6282;SDS011;3174;53.486;9.568;2023-02-28T06:53:46;4.90;;;2.40;;
6282;SDS011;3174;53.486;9.568;2023-02-28T06:56:14;2.30;;;2.10;;
6282;SDS011;3174;53.486;9.568;2023-02-28T06:58:45;3.00;;;1.97;;
6282;SDS011;3174;53.486;9.568;2023-02-28T07:01:15;3.27;;;1.80;;
6282;SDS011;3174;53.486;9.568;2023-02-28T07:03:43;2.90;;;1.90;;
6282;SDS011;3174;53.486;9.568;2023-02-28T07:06:11;3.93;;;2.73;;
6282;SDS011;3174;53.486;9.568;2023-02-28T07:08:39;3.93;;;3.13;;
6282;SDS011;3174;53.486;9.568;2023-02-28T07:11:07;5.70;;;2.33;;
6282;SDS011;3174;53.486;9.568;2023-02-28T07:13:35;3.87;;;2.93;;
6282;SDS011;3174;53.486;9.568;2023-02-28T07:16:04;3.97;;;2.83;;
6282;SDS011;3174;53.486;9.568;2023-02-28T07:18:35;5.70;;;2.20;;
6282;SDS011;3174;53.486;9.568;2023-02-28T07:21:04;2.33;;;1.90;;
6282;SDS011;3174;53.486;9.568;2023-02-28T07:23:32;2.87;;;2.10;;
6282;SDS011;3174;53.486;9.568;2023-02-28T07:26:01;3.87;;;2.13;;
6282;SDS011;3174;53.486;9.568;2023-02-28T07:28:29;2.87;;;2.30;;
6282;SDS011;3174;53.486;9.568;2023-02-28T07:31:02;3.47;;;1.90;;
6282;SDS011;3174;53.486;9.568;2023-02-28T07:33:31;2.70;;;2.07;;
6282;SDS011;3174;53.486;9.568;2023-02-28T07:36:02;5.40;;;2.20;;
6282;SDS011;3174;53.486;9.568;2023-02-28T07:38:30;3.33;;;2.00;;
6282;SDS011;3174;53.486;9.568;2023-02-28T07:40:58;4.07;;;1.70;;
6282;SDS011;3174;53.486;9.568;2023-02-28T07:43:26;5.63;;;2.27;;
6282;SDS011;3174;53.486;9.568;2023-02-28T07:45:54;2.60;;;1.90;;
6282;SDS011;3174;53.486;9.568;2023-02-28T07:48:22;4.47;;;3.17;;
6282;SDS011;3174;53.486;9.568;2023-02-28T07:50:53;4.53;;;1.93;;
6282;SDS011;3174;53.486;9.568;2023-02-28T07:53:24;4.77;;;2.00;;
6282;SDS011;3174;53.486;9.568;2023-02-28T07:55:54;2.93;;;1.90;;
6282;SDS011;3174;53.486;9.568;2023-02-28T07:58:23;2.27;;;1.77;;
6282;SDS011;3174;53.486;9.568;2023-02-28T08:00:51;2.70;;;2.10;;
6282;SDS011;3174;53.486;9.568;2023-02-28T08:03:19;3.83;;;2.50;;
6282;SDS011;3174;53.486;9.568;2023-02-28T08:05:48;3.50;;;2.03;;
6282;SDS011;3174;53.486;9.568;2023-02-28T08:08:17;5.63;;;2.30;;
6282;SDS011;3174;53.486;9.568;2023-02-28T08:10:47;2.43;;;1.77;;
6282;SDS011;3174;53.486;9.568;2023-02-28T08:13:15;4.40;;;2.40;;
6282;SDS011;3174;53.486;9.568;2023-02-28T08:15:42;3.70;;;2.50;;
6282;SDS011;3174;53.486;9.568;2023-02-28T08:18:11;3.67;;;1.90;;
6282;SDS011;3174;53.486;9.568;2023-02-28T08:20:39;6.70;;;2.13;;
6282;SDS011;3174;53.486;9.568;2023-02-28T08:23:08;6.00;;;2.07;;
6282;SDS011;3174;53.486;9.568;2023-02-28T08:25:42;3.77;;;2.30;;
6282;SDS011;3174;53.486;9.568;2023-02-28T08:28:24;2.37;;;2.00;;
6282;SDS011;3174;53.486;9.568;2023-02-28T08:30:53;2.40;;;1.80;;
6282;SDS011;3174;53.486;9.568;2023-02-28T08:33:21;3.30;;;2.10;;
6282;SDS011;3174;53.486;9.568;2023-02-28T08:35:51;4.50;;;2.40;;
6282;SDS011;3174;53.486;9.568;2023-02-28T08:38:21;3.73;;;2.03;;
6282;SDS011;3174;53.486;9.568;2023-02-28T08:40:49;3.17;;;2.03;;
6282;SDS011;3174;53.486;9.568;2023-02-28T08:43:18;4.60;;;2.40;;
6282;SDS011;3174;53.486;9.568;2023-02-28T08:45:46;3.17;;;2.00;;
6282;SDS011;3174;53.486;9.568;2023-02-28T08:48:14;4.00;;;1.70;;
6282;SDS011;3174;53.486;9.568;2023-02-28T08:50:44;1.70;;;1.60;;
6282;SDS011;3174;53.486;9.568;2023-02-28T08:53:30;3.40;;;1.73;;
6282;SDS011;3174;53.486;9.568;2023-02-28T08:55:58;2.70;;;1.83;;
6282;SDS011;3174;53.486;9.568;2023-02-28T08:58:28;2.00;;;1.63;;
6282;SDS011;3174;53.486;9.568;2023-02-28T09:00:56;3.33;;;1.63;;
6282;SDS011;3174;53.486;9.568;2023-02-28T09:03:24;2.40;;;1.50;;
6282;SDS011;3174;53.486;9.568;2023-02-28T09:06:02;2.73;;;1.47;;
6282;SDS011;3174;53.486;9.568;2023-02-28T09:08:38;3.17;;;1.63;;
6282;SDS011;3174;53.486;9.568;2023-02-28T09:11:06;3.40;;;1.77;;
6282;SDS011;3174;53.486;9.568;2023-02-28T09:13:36;2.57;;;1.63;;
6282;SDS011;3174;53.486;9.568;2023-02-28T09:16:04;3.67;;;1.30;;
6282;SDS011;3174;53.486;9.568;2023-02-28T09:18:34;2.60;;;1.47;;
6282;SDS011;3174;53.486;9.568;2023-02-28T09:21:03;2.67;;;1.40;;
6282;SDS011;3174;53.486;9.568;2023-02-28T09:23:32;1.97;;;1.40;;
6282;SDS011;3174;53.486;9.568;2023-02-28T09:26:00;1.93;;;1.40;;
6282;SDS011;3174;53.486;9.568;2023-02-28T09:28:28;2.23;;;1.53;;
6282;SDS011;3174;53.486;9.568;2023-02-28T09:30:57;2.20;;;1.40;;
6282;SDS011;3174;53.486;9.568;2023-02-28T09:33:28;3.70;;;1.43;;
6282;SDS011;3174;53.486;9.568;2023-02-28T09:35:57;2.93;;;1.30;;
6282;SDS011;3174;53.486;9.568;2023-02-28T09:38:27;1.83;;;1.20;;
6282;SDS011;3174;53.486;9.568;2023-02-28T09:41:00;1.83;;;1.30;;
6282;SDS011;3174;53.486;9.568;2023-02-28T09:43:31;2.07;;;1.20;;
6282;SDS011;3174;53.486;9.568;2023-02-28T09:46:08;1.27;;;0.77;;
6282;SDS011;3174;53.486;9.568;2023-02-28T09:48:43;1.83;;;1.10;;
6282;SDS011;3174;53.486;9.568;2023-02-28T09:51:14;1.57;;;0.90;;
6282;SDS011;3174;53.486;9.568;2023-02-28T09:53:48;1.77;;;0.87;;
6282;SDS011;3174;53.486;9.568;2023-02-28T09:56:27;2.43;;;1.00;;
6282;SDS011;3174;53.486;9.568;2023-02-28T09:59:00;2.27;;;1.00;;
6282;SDS011;3174;53.486;9.568;2023-02-28T10:01:34;3.13;;;1.10;;
6282;SDS011;3174;53.486;9.568;2023-02-28T10:04:05;2.63;;;1.03;;
6282;SDS011;3174;53.486;9.568;2023-02-28T10:06:39;1.90;;;1.10;;
6282;SDS011;3174;53.486;9.568;2023-02-28T10:09:10;2.17;;;1.30;;
6282;SDS011;3174;53.486;9.568;2023-02-28T10:11:40;1.80;;;1.00;;
6282;SDS011;3174;53.486;9.568;2023-02-28T10:14:11;10.60;;;5.60;;
6282;SDS011;3174;53.486;9.568;2023-02-28T10:16:43;1.53;;;1.20;;
6282;SDS011;3174;53.486;9.568;2023-02-28T10:19:19;2.50;;;1.77;;
6282;SDS011;3174;53.486;9.568;2023-02-28T10:21:50;2.50;;;1.30;;
6282;SDS011;3174;53.486;9.568;2023-02-28T10:24:25;1.63;;;1.20;;
6282;SDS011;3174;53.486;9.568;2023-02-28T10:26:56;2.60;;;1.17;;
6282;SDS011;3174;53.486;9.568;2023-02-28T10:29:28;1.73;;;1.30;;
6282;SDS011;3174;53.486;9.568;2023-02-28T10:32:01;2.00;;;1.13;;
6282;SDS011;3174;53.486;9.568;2023-02-28T10:34:30;2.60;;;1.40;;
6282;SDS011;3174;53.486;9.568;2023-02-28T10:36:58;1.73;;;1.40;;
6282;SDS011;3174;53.486;9.568;2023-02-28T10:39:35;1.90;;;1.30;;
6282;SDS011;3174;53.486;9.568;2023-02-28T10:42:05;3.20;;;1.47;;
6282;SDS011;3174;53.486;9.568;2023-02-28T10:44:46;2.23;;;1.10;;
6282;SDS011;3174;53.486;9.568;2023-02-28T10:47:16;2.73;;;1.20;;
6282;SDS011;3174;53.486;9.568;2023-02-28T10:49:48;1.13;;;1.00;;
6282;SDS011;3174;53.486;9.568;2023-02-28T10:52:32;1.23;;;1.00;;
6282;SDS011;3174;53.486;9.568;2023-02-28T10:55:13;1.40;;;1.10;;
6282;SDS011;3174;53.486;9.568;2023-02-28T10:57:43;2.67;;;1.23;;
6282;SDS011;3174;53.486;9.568;2023-02-28T11:00:14;1.80;;;1.07;;
6282;SDS011;3174;53.486;9.568;2023-02-28T11:02:44;1.00;;;0.90;;
6282;SDS011;3174;53.486;9.568;2023-02-28T11:05:23;1.60;;;1.10;;
6282;SDS011;3174;53.486;9.568;2023-02-28T11:07:53;2.50;;;1.00;;
6282;SDS011;3174;53.486;9.568;2023-02-28T11:10:24;1.63;;;1.00;;
6282;SDS011;3174;53.486;9.568;2023-02-28T11:12:54;1.23;;;0.90;;
6282;SDS011;3174;53.486;9.568;2023-02-28T11:15:26;1.80;;;0.80;;
6282;SDS011;3174;53.486;9.568;2023-02-28T11:17:57;1.23;;;0.70;;
6282;SDS011;3174;53.486;9.568;2023-02-28T11:20:27;0.90;;;0.70;;
6282;SDS011;3174;53.486;9.568;2023-02-28T11:22:56;2.87;;;1.20;;
6282;SDS011;3174;53.486;9.568;2023-02-28T11:25:25;7.03;;;1.13;;
6282;SDS011;3174;53.486;9.568;2023-02-28T11:27:56;1.97;;;0.90;;
6282;SDS011;3174;53.486;9.568;2023-02-28T11:30:36;3.47;;;1.20;;
6282;SDS011;3174;53.486;9.568;2023-02-28T11:33:22;1.10;;;1.00;;
6282;SDS011;3174;53.486;9.568;2023-02-28T11:35:51;1.60;;;1.07;;
6282;SDS011;3174;53.486;9.568;2023-02-28T11:38:20;1.17;;;0.73;;
6282;SDS011;3174;53.486;9.568;2023-02-28T11:40:50;1.60;;;1.17;;
6282;SDS011;3174;53.486;9.568;2023-02-28T11:43:30;1.33;;;0.90;;
6282;SDS011;3174;53.486;9.568;2023-02-28T11:46:06;1.03;;;0.77;;
6282;SDS011;3174;53.486;9.568;2023-02-28T11:48:49;1.37;;;1.00;;
6282;SDS011;3174;53.486;9.568;2023-02-28T11:51:21;1.20;;;0.73;;
6282;SDS011;3174;53.486;9.568;2023-02-28T11:54:01;2.10;;;0.90;;
6282;SDS011;3174;53.486;9.568;2023-02-28T11:56:54;1.33;;;1.00;;
6282;SDS011;3174;53.486;9.568;2023-02-28T11:59:29;1.20;;;0.90;;
6282;SDS011;3174;53.486;9.568;2023-02-28T12:02:20;0.80;;;0.80;;
6282;SDS011;3174;53.486;9.568;2023-02-28T12:04:53;0.80;;;0.80;;
6282;SDS011;3174;53.486;9.568;2023-02-28T12:07:34;2.63;;;0.90;;
6282;SDS011;3174;53.486;9.568;2023-02-28T12:10:06;0.87;;;0.80;;
6282;SDS011;3174;53.486;9.568;2023-02-28T12:12:43;1.90;;;1.03;;
6282;SDS011;3174;53.486;9.568;2023-02-28T12:15:28;1.43;;;1.00;;
6282;SDS011;3174;53.486;9.568;2023-02-28T12:18:16;1.87;;;0.90;;
6282;SDS011;3174;53.486;9.568;2023-02-28T12:20:54;1.50;;;1.10;;
6282;SDS011;3174;53.486;9.568;2023-02-28T12:23:39;2.00;;;1.10;;
6282;SDS011;3174;53.486;9.568;2023-02-28T12:26:34;2.23;;;1.27;;
6282;SDS011;3174;53.486;9.568;2023-02-28T12:29:08;1.23;;;0.90;;
6282;SDS011;3174;53.486;9.568;2023-02-28T12:31:41;1.53;;;1.00;;
6282;SDS011;3174;53.486;9.568;2023-02-28T12:34:12;1.93;;;1.00;;
6282;SDS011;3174;53.486;9.568;2023-02-28T12:36:43;1.10;;;0.83;;
6282;SDS011;3174;53.486;9.568;2023-02-28T12:39:16;1.30;;;1.00;;
6282;SDS011;3174;53.486;9.568;2023-02-28T12:41:50;1.63;;;1.07;;
6282;SDS011;3174;53.486;9.568;2023-02-28T12:44:26;1.70;;;1.00;;
6282;SDS011;3174;53.486;9.568;2023-02-28T12:46:56;1.30;;;1.00;;
6282;SDS011;3174;53.486;9.568;2023-02-28T12:49:28;1.80;;;1.70;;
6282;SDS011;3174;53.486;9.568;2023-02-28T12:52:00;2.00;;;1.03;;
6282;SDS011;3174;53.486;9.568;2023-02-28T12:54:33;2.17;;;1.00;;
6282;SDS011;3174;53.486;9.568;2023-02-28T12:57:06;2.00;;;1.20;;
6282;SDS011;3174;53.486;9.568;2023-02-28T12:59:39;2.20;;;0.73;;
6282;SDS011;3174;53.486;9.568;2023-02-28T13:02:12;1.10;;;1.00;;
6282;SDS011;3174;53.486;9.568;2023-02-28T13:08:03;3.80;;;1.23;;
6282;SDS011;3174;53.486;9.568;2023-02-28T13:10:50;1.77;;;1.00;;
6282;SDS011;3174;53.486;9.568;2023-02-28T13:13:21;1.20;;;0.83;;
6282;SDS011;3174;53.486;9.568;2023-02-28T13:15:57;1.83;;;0.90;;
6282;SDS011;3174;53.486;9.568;2023-02-28T13:18:33;1.80;;;1.10;;
6282;SDS011;3174;53.486;9.568;2023-02-28T13:21:04;1.20;;;0.90;;
6282;SDS011;3174;53.486;9.568;2023-02-28T13:23:39;1.47;;;1.00;;
6282;SDS011;3174;53.486;9.568;2023-02-28T13:26:09;1.37;;;0.90;;
6282;SDS011;3174;53.486;9.568;2023-02-28T13:38:15;3.37;;;0.90;;
6282;SDS011;3174;53.486;9.568;2023-02-28T13:40:51;2.53;;;0.83;;
6282;SDS011;3174;53.486;9.568;2023-02-28T13:43:19;2.77;;;1.07;;
6282;SDS011;3174;53.486;9.568;2023-02-28T13:46:08;1.00;;;0.87;;
6282;SDS011;3174;53.486;9.568;2023-02-28T13:48:38;1.97;;;0.90;;
6282;SDS011;3174;53.486;9.568;2023-02-28T13:54:17;1.60;;;0.97;;
6282;SDS011;3174;53.486;9.568;2023-02-28T13:56:57;1.63;;;1.17;;
6282;SDS011;3174;53.486;9.568;2023-02-28T13:59:34;1.43;;;1.03;;
6282;SDS011;3174;53.486;9.568;2023-02-28T14:02:17;1.00;;;0.80;;
6282;SDS011;3174;53.486;9.568;2023-02-28T14:05:01;2.27;;;0.97;;
6282;SDS011;3174;53.486;9.568;2023-02-28T14:07:33;1.67;;;0.97;;
6282;SDS011;3174;53.486;9.568;2023-02-28T14:10:06;0.93;;;0.80;;
6282;SDS011;3174;53.486;9.568;2023-02-28T14:12:53;0.80;;;0.80;;
6282;SDS011;3174;53.486;9.568;2023-02-28T14:15:26;4.63;;;0.97;;
6282;SDS011;3174;53.486;9.568;2023-02-28T14:18:13;1.33;;;1.10;;
6282;SDS011;3174;53.486;9.568;2023-02-28T14:20:44;0.97;;;0.83;;
6282;SDS011;3174;53.486;9.568;2023-02-28T14:23:16;1.27;;;0.83;;
6282;SDS011;3174;53.486;9.568;2023-02-28T14:25:51;1.53;;;0.80;;
6282;SDS011;3174;53.486;9.568;2023-02-28T14:28:26;2.33;;;0.80;;
6282;SDS011;3174;53.486;9.568;2023-02-28T14:31:07;1.53;;;1.07;;
6282;SDS011;3174;53.486;9.568;2023-02-28T14:33:42;1.00;;;0.90;;
6282;SDS011;3174;53.486;9.568;2023-02-28T14:36:20;0.90;;;0.77;;
6282;SDS011;3174;53.486;9.568;2023-02-28T14:38:51;1.50;;;0.93;;
6282;SDS011;3174;53.486;9.568;2023-02-28T14:41:21;1.30;;;1.03;;
6282;SDS011;3174;53.486;9.568;2023-02-28T14:43:56;1.70;;;1.27;;
6282;SDS011;3174;53.486;9.568;2023-02-28T14:46:26;1.70;;;1.00;;
6282;SDS011;3174;53.486;9.568;2023-02-28T14:48:58;2.73;;;1.20;;
6282;SDS011;3174;53.486;9.568;2023-02-28T14:51:27;2.27;;;0.90;;
6282;SDS011;3174;53.486;9.568;2023-02-28T14:53:57;1.13;;;1.00;;
6282;SDS011;3174;53.486;9.568;2023-02-28T14:56:28;2.93;;;0.87;;
6282;SDS011;3174;53.486;9.568;2023-02-28T14:59:02;1.10;;;1.00;;
6282;SDS011;3174;53.486;9.568;2023-02-28T15:01:30;2.27;;;1.13;;
6282;SDS011;3174;53.486;9.568;2023-02-28T15:04:00;1.20;;;1.10;;
6282;SDS011;3174;53.486;9.568;2023-02-28T15:06:30;1.20;;;1.00;;
6282;SDS011;3174;53.486;9.568;2023-02-28T15:11:46;1.07;;;0.80;;
6282;SDS011;3174;53.486;9.568;2023-02-28T15:14:20;2.10;;;1.17;;
6282;SDS011;3174;53.486;9.568;2023-02-28T15:16:50;1.97;;;1.17;;
6282;SDS011;3174;53.486;9.568;2023-02-28T15:19:23;0.97;;;0.87;;
6282;SDS011;3174;53.486;9.568;2023-02-28T15:21:54;2.27;;;1.20;;
6282;SDS011;3174;53.486;9.568;2023-02-28T15:24:28;2.10;;;1.50;;
6282;SDS011;3174;53.486;9.568;2023-02-28T15:27:04;1.43;;;1.00;;
6282;SDS011;3174;53.486;9.568;2023-02-28T15:29:37;3.13;;;1.23;;
6282;SDS011;3174;53.486;9.568;2023-02-28T15:32:19;2.07;;;1.30;;
6282;SDS011;3174;53.486;9.568;2023-02-28T15:34:52;1.97;;;1.10;;
6282;SDS011;3174;53.486;9.568;2023-02-28T15:37:27;8.63;;;4.10;;
6282;SDS011;3174;53.486;9.568;2023-02-28T15:39:58;1.20;;;1.10;;
6282;SDS011;3174;53.486;9.568;2023-02-28T15:42:33;2.27;;;1.37;;
6282;SDS011;3174;53.486;9.568;2023-02-28T15:45:02;1.27;;;0.93;;
6282;SDS011;3174;53.486;9.568;2023-02-28T15:47:31;1.50;;;1.30;;
6282;SDS011;3174;53.486;9.568;2023-02-28T15:50:00;2.83;;;1.40;;
6282;SDS011;3174;53.486;9.568;2023-02-28T15:52:29;1.97;;;0.90;;
6282;SDS011;3174;53.486;9.568;2023-02-28T15:55:07;1.43;;;0.90;;
6282;SDS011;3174;53.486;9.568;2023-02-28T15:57:39;1.67;;;1.07;;
6282;SDS011;3174;53.486;9.568;2023-02-28T16:00:11;1.50;;;0.90;;
6282;SDS011;3174;53.486;9.568;2023-02-28T16:02:41;0.97;;;0.90;;
6282;SDS011;3174;53.486;9.568;2023-02-28T16:05:20;1.90;;;1.10;;
6282;SDS011;3174;53.486;9.568;2023-02-28T16:07:54;3.83;;;1.20;;